Time;durP1;ratioP1;P1;durP2;ratioP2;P2;SDS_P1;SDS_P2;PMS_P1;PMS_P2;Temp;Humidity;BMP_temperature;BMP_pressure;BME280_temperature;BME280_humidity;BME280_pressure;Samples;Min_cycle;Max_cycle;Signal;HPM_P1;HPM_P2
2022/04/25 00:01:10;;;;;;;14.38;9.45;;;9.00;96.60;;;;;;4933529;29;20155;-63
2022/04/25 00:03:36;;;;;;;18.77;8.63;;;8.90;97.00;;;;;;4934869;29;20036;-63
2022/04/25 00:06:02;;;;;;;14.60;9.00;;;8.80;96.90;;;;;;4925563;29;20064;-61
2022/04/25 00:08:27;;;;;;;15.63;8.90;;;8.80;96.90;;;;;;4933676;29;20066;-62
2022/04/25 00:10:53;;;;;;;14.07;9.35;;;8.80;96.90;;;;;;4925956;29;20028;-62
2022/04/25 00:13:18;;;;;;;13.07;8.77;;;8.80;96.90;;;;;;4925555;29;20028;-61
2022/04/25 00:15:44;;;;;;;15.10;9.43;;;8.80;97.00;;;;;;4932316;29;20135;-62
2022/04/25 00:18:09;;;;;;;11.52;8.43;;;8.70;97.20;;;;;;4932744;29;20020;-63
2022/04/25 00:20:36;;;;;;;14.18;9.63;;;8.70;97.40;;;;;;4928022;29;20507;-62
2022/04/25 00:23:05;;;;;;;17.30;9.35;;;8.70;97.10;;;;;;4915345;29;20124;-63
2022/04/25 00:25:31;;;;;;;13.95;8.85;;;8.60;97.20;;;;;;4922395;29;20480;-62
2022/04/25 00:27:57;;;;;;;12.90;9.45;;;8.70;97.10;;;;;;4934516;29;20043;-63
2022/04/25 00:30:24;;;;;;;18.63;9.93;;;8.60;97.20;;;;;;4933306;29;20432;-63
2022/04/25 00:32:50;;;;;;;13.63;9.68;;;8.60;97.10;;;;;;4934168;29;20051;-63
2022/04/25 00:35:16;;;;;;;14.68;10.05;;;8.70;97.10;;;;;;4933295;29;20040;-63
2022/04/25 00:37:41;;;;;;;16.80;10.20;;;8.70;97.10;;;;;;4934640;29;20034;-63
2022/04/25 00:40:08;;;;;;;17.40;11.50;;;8.70;97.50;;;;;;4933603;29;20714;-63
2022/04/25 00:42:34;;;;;;;14.13;9.30;;;8.70;97.30;;;;;;4933459;29;20049;-62
2022/04/25 00:45:00;;;;;;;19.10;10.77;;;8.70;97.00;;;;;;4933590;29;20558;-63
2022/04/25 00:47:26;;;;;;;15.20;9.82;;;8.80;97.00;;;;;;4933942;29;20043;-62
2022/04/25 00:49:51;;;;;;;18.70;10.75;;;8.80;97.00;;;;;;4933054;29;20114;-62
2022/04/25 00:52:17;;;;;;;16.55;11.50;;;8.70;97.00;;;;;;4925256;29;20111;-62
2022/04/25 00:54:43;;;;;;;20.02;11.55;;;8.60;97.20;;;;;;4934505;29;20031;-62
2022/04/25 00:57:09;;;;;;;16.00;12.00;;;8.70;97.40;;;;;;4933644;29;20047;-62
2022/04/25 00:59:35;;;;;;;21.85;12.75;;;8.50;97.50;;;;;;4934240;29;20332;-62
2022/04/25 01:02:00;;;;;;;19.85;12.43;;;8.50;97.60;;;;;;4932771;29;20115;-62
2022/04/25 01:04:26;;;;;;;18.42;12.15;;;8.40;97.70;;;;;;4933459;29;20046;-63
2022/04/25 01:06:52;;;;;;;20.42;12.98;;;8.40;97.90;;;;;;4932816;29;20038;-63
2022/04/25 01:09:18;;;;;;;18.35;11.57;;;8.30;97.80;;;;;;4934157;29;20024;-63
2022/04/25 01:11:44;;;;;;;19.30;11.60;;;8.30;97.80;;;;;;4921594;29;20030;-63
2022/04/25 01:14:15;;;;;;;20.13;12.43;;;8.40;97.80;;;;;;4919485;29;20040;-63
2022/04/25 01:16:41;;;;;;;17.55;12.57;;;8.30;97.90;;;;;;4929254;29;20027;-62
2022/04/25 01:19:07;;;;;;;20.35;12.13;;;8.30;98.00;;;;;;4933831;29;20109;-62
2022/04/25 01:21:40;;;;;;;19.83;12.32;;;8.20;97.90;;;;;;4932719;29;20044;-62
2022/04/25 01:29:37;;;;;;;17.98;12.13;;;8.20;98.40;;;;;;4924315;29;20055;-62
2022/04/25 01:32:04;;;;;;;21.88;12.10;;;8.20;98.10;;;;;;4932102;29;20048;-62
2022/04/25 01:34:30;;;;;;;23.65;13.40;;;8.20;98.20;;;;;;4933770;29;20035;-61
2022/04/25 01:36:56;;;;;;;22.70;14.75;;;8.20;98.20;;;;;;4916410;29;20472;-62
2022/04/25 01:39:22;;;;;;;21.15;13.00;;;8.20;98.20;;;;;;4933077;29;20038;-62
2022/04/25 01:41:47;;;;;;;24.75;14.90;;;8.20;98.30;;;;;;4924633;29;20118;-62
2022/04/25 01:44:13;;;;;;;17.15;12.20;;;8.20;98.40;;;;;;4936518;29;20079;-63
2022/04/25 01:46:39;;;;;;;18.15;12.40;;;8.10;98.40;;;;;;4936708;29;20039;-62
2022/04/25 01:49:04;;;;;;;17.35;11.85;;;8.10;98.30;;;;;;4926939;29;20024;-62
2022/04/25 01:51:32;;;;;;;22.17;13.20;;;8.10;98.20;;;;;;4929697;29;20042;-62
2022/04/25 01:53:57;;;;;;;20.73;13.10;;;8.10;98.20;;;;;;4935000;29;20039;-62
2022/04/25 01:56:22;;;;;;;21.58;13.35;;;8.20;98.40;;;;;;4936813;29;20028;-62
2022/04/25 01:58:48;;;;;;;23.23;13.15;;;8.20;98.20;;;;;;4935623;29;20155;-62
2022/04/25 02:01:14;;;;;;;25.15;13.98;;;8.20;98.30;;;;;;4928701;29;20043;-62
2022/04/25 02:03:41;;;;;;;20.23;13.32;;;8.20;98.50;;;;;;4925324;29;20024;-62
2022/04/25 02:06:06;;;;;;;19.25;13.88;;;8.10;98.40;;;;;;4935573;29;20035;-63
2022/04/25 02:08:32;;;;;;;19.92;13.13;;;8.10;98.30;;;;;;4923916;29;20031;-62
2022/04/25 02:13:41;;;;;;;21.05;12.50;;;8.20;98.20;;;;;;4935565;29;20376;-62
2022/04/25 02:16:08;;;;;;;17.63;12.23;;;8.20;98.10;;;;;;4936509;29;20031;-63
2022/04/25 02:18:35;;;;;;;18.38;12.20;;;8.30;98.20;;;;;;4935096;29;20106;-63
2022/04/25 02:21:00;;;;;;;21.98;12.73;;;8.20;98.10;;;;;;4926630;29;20399;-63
2022/04/25 02:23:26;;;;;;;21.25;12.90;;;8.30;98.00;;;;;;4934623;29;20040;-63
2022/04/25 02:25:51;;;;;;;18.10;13.00;;;8.30;98.00;;;;;;4936944;29;20059;-63
2022/04/25 02:28:17;;;;;;;16.58;12.45;;;8.30;98.20;;;;;;4935440;29;20051;-64
2022/04/25 02:30:42;;;;;;;20.83;13.65;;;8.20;98.10;;;;;;4936966;29;20051;-63
2022/04/25 02:33:08;;;;;;;17.75;12.25;;;8.10;98.20;;;;;;4929384;29;20028;-65
2022/04/25 02:35:33;;;;;;;21.13;13.30;;;8.20;98.10;;;;;;4929284;29;20032;-63
2022/04/25 02:37:59;;;;;;;17.25;11.88;;;8.20;98.00;;;;;;4935455;29;20042;-63
2022/04/25 02:40:24;;;;;;;17.10;12.60;;;8.20;98.20;;;;;;4936005;29;20036;-63
2022/04/25 02:42:50;;;;;;;20.02;13.23;;;8.20;98.00;;;;;;4935335;29;20035;-63
2022/04/25 02:45:15;;;;;;;17.77;12.52;;;8.20;98.00;;;;;;4935959;29;20054;-63
2022/04/25 02:47:41;;;;;;;20.33;13.00;;;8.20;98.00;;;;;;4935586;29;20023;-63
2022/04/25 02:50:07;;;;;;;25.45;13.63;;;8.20;98.10;;;;;;4934103;29;20039;-63
2022/04/25 02:52:32;;;;;;;19.58;13.65;;;8.20;98.30;;;;;;4935760;29;20483;-63
2022/04/25 02:54:58;;;;;;;23.80;13.13;;;8.10;98.30;;;;;;4933652;29;20039;-63
2022/04/25 02:57:23;;;;;;;20.08;12.23;;;8.10;98.20;;;;;;4936038;29;20031;-63
2022/04/25 02:59:49;;;;;;;20.40;12.77;;;8.10;98.10;;;;;;4935119;29;20705;-63
2022/04/25 03:02:15;;;;;;;21.65;13.63;;;8.20;98.20;;;;;;4935777;29;20111;-63
2022/04/25 03:04:40;;;;;;;19.25;12.07;;;8.10;98.30;;;;;;4933538;29;20558;-63
2022/04/25 03:07:24;;;;;;;20.83;13.32;;;8.10;98.30;;;;;;4916949;29;20051;-63
2022/04/25 03:09:56;;;;;;;22.77;13.63;;;8.10;98.20;;;;;;4933714;29;20071;-63
2022/04/25 03:12:21;;;;;;;22.67;13.63;;;8.10;98.10;;;;;;4935709;29;20070;-63
2022/04/25 03:14:47;;;;;;;23.80;14.23;;;8.00;98.60;;;;;;4933724;29;20067;-63
2022/04/25 03:17:12;;;;;;;19.80;12.50;;;8.00;98.40;;;;;;4916619;29;20448;-62
2022/04/25 03:19:38;;;;;;;20.40;13.63;;;7.90;98.50;;;;;;4921508;29;20082;-63
2022/04/25 03:22:04;;;;;;;24.30;14.45;;;7.90;98.40;;;;;;4929403;29;20032;-63
2022/04/25 03:24:30;;;;;;;18.75;13.30;;;7.90;98.40;;;;;;4934156;29;20483;-63
2022/04/25 03:26:56;;;;;;;20.73;14.00;;;7.90;98.30;;;;;;4935658;29;20042;-62
2022/04/25 03:29:22;;;;;;;22.83;14.43;;;7.90;98.60;;;;;;4934277;29;20036;-63
2022/04/25 03:31:47;;;;;;;21.30;14.15;;;7.90;98.60;;;;;;4934685;29;20038;-63
2022/04/25 03:34:13;;;;;;;21.75;13.93;;;7.80;98.80;;;;;;4932737;29;20035;-63
2022/04/25 03:36:38;;;;;;;24.05;14.43;;;7.80;98.80;;;;;;4934573;29;20119;-63
2022/04/25 03:39:04;;;;;;;25.48;14.45;;;7.80;98.60;;;;;;4933985;29;20032;-62
2022/04/25 03:41:31;;;;;;;22.77;14.50;;;7.80;98.60;;;;;;4935203;29;20040;-62
2022/04/25 03:43:57;;;;;;;22.63;14.20;;;7.80;98.70;;;;;;4932752;29;20387;-63
2022/04/25 03:46:22;;;;;;;22.45;14.18;;;7.80;98.70;;;;;;4934798;29;20031;-62
2022/04/25 03:48:48;;;;;;;24.17;14.07;;;7.80;98.60;;;;;;4933865;29;20075;-63
2022/04/25 03:51:14;;;;;;;24.50;14.68;;;7.80;98.60;;;;;;4934689;29;20142;-63
2022/04/25 03:53:40;;;;;;;23.10;14.45;;;7.80;98.60;;;;;;4931537;29;20035;-63
2022/04/25 03:58:50;;;;;;;20.38;14.20;;;7.80;99.00;;;;;;4933244;29;20027;-62
2022/04/25 04:01:16;;;;;;;23.25;15.35;;;7.70;98.80;;;;;;4934475;29;20046;-63
2022/04/25 04:03:41;;;;;;;23.75;15.15;;;7.70;98.90;;;;;;4932886;29;20053;-62
2022/04/25 04:06:12;;;;;;;21.63;14.65;;;7.70;98.90;;;;;;4933730;29;20063;-62
2022/04/25 04:08:38;;;;;;;20.02;13.90;;;7.60;98.90;;;;;;4930822;29;20030;-62
2022/04/25 04:11:05;;;;;;;22.40;14.65;;;7.60;98.90;;;;;;4934807;29;20035;-63
2022/04/25 04:13:30;;;;;;;23.15;14.68;;;7.60;98.80;;;;;;4933537;29;20064;-63
2022/04/25 04:15:56;;;;;;;19.70;12.50;;;7.70;98.90;;;;;;4925097;29;20060;-63
2022/04/25 04:18:23;;;;;;;21.63;13.15;;;7.70;98.80;;;;;;4920434;29;20471;-63
2022/04/25 04:20:48;;;;;;;23.75;13.82;;;7.70;98.80;;;;;;4932447;29;20376;-63
2022/04/25 04:23:14;;;;;;;21.08;13.52;;;7.70;98.90;;;;;;4933326;29;20099;-63
2022/04/25 04:25:40;;;;;;;24.05;13.80;;;7.70;98.90;;;;;;4915866;29;20087;-63
2022/04/25 04:28:06;;;;;;;22.92;14.02;;;7.70;98.90;;;;;;4928743;29;20576;-63
2022/04/25 04:30:32;;;;;;;23.73;13.77;;;7.70;98.80;;;;;;4934470;29;20119;-63
2022/04/25 04:32:58;;;;;;;23.05;13.00;;;7.80;99.00;;;;;;4933391;29;20027;-63
2022/04/25 04:38:08;;;;;;;21.17;13.43;;;7.80;98.60;;;;;;4930983;29;20023;-63
2022/04/25 04:40:35;;;;;;;20.77;13.70;;;7.80;98.70;;;;;;4932384;29;20028;-63
2022/04/25 04:43:01;;;;;;;24.15;13.38;;;7.80;98.70;;;;;;4931836;29;20107;-63
2022/04/25 04:45:26;;;;;;;24.10;14.40;;;7.80;98.70;;;;;;4901717;29;20028;-63
2022/04/25 04:47:52;;;;;;;23.23;13.75;;;7.80;98.70;;;;;;4916441;29;20437;-63
2022/04/25 04:50:17;;;;;;;24.42;14.00;;;7.80;98.80;;;;;;4928357;29;20060;-65
2022/04/25 04:52:48;;;;;;;20.85;12.52;;;7.80;98.70;;;;;;4915142;29;20036;-64
2022/04/25 04:55:14;;;;;;;25.45;15.85;;;7.80;98.70;;;;;;4933624;29;20027;-64
2022/04/25 04:57:40;;;;;;;24.48;13.88;;;7.80;98.70;;;;;;4914944;29;20067;-63
2022/04/25 05:00:08;;;;;;;22.48;13.70;;;7.90;98.80;;;;;;4918032;29;20040;-69
2022/04/25 05:02:33;;;;;;;20.98;13.68;;;7.90;98.70;;;;;;4933989;29;20032;-69
2022/04/25 05:04:59;;;;;;;22.80;15.55;;;7.90;98.70;;;;;;4933314;29;20034;-68
2022/04/25 05:07:25;;;;;;;25.63;15.07;;;7.80;98.70;;;;;;4934118;29;20038;-65
2022/04/25 05:09:51;;;;;;;22.40;13.35;;;7.80;98.80;;;;;;4916506;29;20028;-65
2022/04/25 05:12:17;;;;;;;19.83;12.90;;;7.80;98.70;;;;;;4933321;29;20035;-65
2022/04/25 05:14:42;;;;;;;21.20;12.57;;;7.90;98.70;;;;;;4931937;29;20023;-63
2022/04/25 05:17:08;;;;;;;23.00;13.20;;;8.00;98.60;;;;;;4934527;29;20479;-65
2022/04/25 05:19:33;;;;;;;23.35;13.95;;;8.00;98.50;;;;;;4926691;29;20042;-64
2022/04/25 05:21:59;;;;;;;24.75;14.27;;;8.10;98.50;;;;;;4930564;29;20522;-64
2022/04/25 05:24:24;;;;;;;20.45;13.25;;;8.10;98.50;;;;;;4932988;29;20035;-64
2022/04/25 05:26:50;;;;;;;24.30;14.68;;;8.20;98.40;;;;;;4937521;29;20554;-63
2022/04/25 05:29:15;;;;;;;23.85;13.60;;;8.20;98.40;;;;;;4936257;29;20032;-64
2022/04/25 05:31:41;;;;;;;20.98;12.90;;;8.20;98.20;;;;;;4920567;29;20694;-64
2022/04/25 05:34:06;;;;;;;20.10;12.50;;;8.20;98.20;;;;;;4931757;29;20083;-63
2022/04/25 05:36:32;;;;;;;22.60;13.63;;;8.20;98.20;;;;;;4932773;29;20021;-64
2022/04/25 05:38:57;;;;;;;24.75;13.40;;;8.20;98.30;;;;;;4936363;29;20043;-64
2022/04/25 05:41:23;;;;;;;22.15;13.27;;;8.20;98.30;;;;;;4936637;29;20040;-64
2022/04/25 05:43:49;;;;;;;20.02;12.00;;;8.20;98.30;;;;;;4936275;29;20100;-64
2022/04/25 05:46:14;;;;;;;34.20;15.20;;;8.10;98.20;;;;;;4936612;29;20395;-65
2022/04/25 05:54:08;;;;;;;16.37;10.97;;;8.30;98.10;;;;;;4927268;29;20071;-65
2022/04/25 05:56:34;;;;;;;21.92;12.10;;;8.20;98.10;;;;;;4907468;29;20795;-65
2022/04/25 05:59:00;;;;;;;20.63;11.70;;;8.20;98.10;;;;;;4928154;29;20028;-65
2022/04/25 06:01:25;;;;;;;16.52;11.13;;;8.30;98.10;;;;;;4935883;29;20063;-65
2022/04/25 06:03:50;;;;;;;17.77;10.73;;;8.30;98.00;;;;;;4934728;29;20047;-63
2022/04/25 06:06:21;;;;;;;18.20;11.07;;;8.30;98.10;;;;;;4935078;29;20060;-64
2022/04/25 06:08:46;;;;;;;15.70;9.63;;;8.40;98.10;;;;;;4927204;29;20027;-64
2022/04/25 06:11:12;;;;;;;14.57;9.35;;;8.40;98.00;;;;;;4916862;29;20032;-64
2022/04/25 06:13:38;;;;;;;16.02;9.52;;;8.50;98.00;;;;;;4935588;29;20106;-64
2022/04/25 06:16:05;;;;;;;13.38;9.25;;;8.50;97.90;;;;;;4934651;29;20114;-64
2022/04/25 06:18:30;;;;;;;15.48;9.05;;;8.50;97.90;;;;;;4931237;29;20031;-64
2022/04/25 06:20:56;;;;;;;15.70;8.60;;;8.50;97.80;;;;;;4935665;29;20044;-64
2022/04/25 06:23:22;;;;;;;11.82;7.20;;;8.50;97.70;;;;;;4932126;29;20492;-64
2022/04/25 06:25:47;;;;;;;12.70;8.63;;;8.60;97.70;;;;;;4917972;29;20126;-63
2022/04/25 06:28:12;;;;;;;13.68;8.85;;;8.70;97.70;;;;;;4929292;29;20023;-63
2022/04/25 06:30:38;;;;;;;12.00;7.90;;;8.70;97.60;;;;;;4934859;29;20035;-63
2022/04/25 06:33:04;;;;;;;13.30;8.48;;;8.70;97.60;;;;;;4934493;29;20475;-63
2022/04/25 06:35:30;;;;;;;13.57;8.02;;;8.70;97.60;;;;;;4934952;29;20059;-63
2022/04/25 06:37:55;;;;;;;13.10;8.38;;;8.80;97.50;;;;;;4925899;29;20039;-63
2022/04/25 06:40:21;;;;;;;21.70;9.85;;;8.80;97.40;;;;;;4930630;29;20035;-63
2022/04/25 06:42:47;;;;;;;13.10;8.63;;;8.90;97.40;;;;;;4925005;29;20023;-63
2022/04/25 06:45:13;;;;;;;12.75;7.65;;;9.00;97.30;;;;;;4926303;29;20028;-63
2022/04/25 06:47:39;;;;;;;13.40;7.10;;;9.00;97.20;;;;;;4925356;29;20361;-63
2022/04/25 06:50:06;;;;;;;12.43;7.85;;;9.00;97.10;;;;;;4915846;29;20577;-63
2022/04/25 06:52:33;;;;;;;10.35;7.05;;;9.10;96.90;;;;;;4917242;29;20032;-64
2022/04/25 06:54:58;;;;;;;12.55;8.10;;;9.20;97.00;;;;;;4933843;29;20086;-63
2022/04/25 06:57:24;;;;;;;11.82;7.45;;;9.20;96.80;;;;;;4935413;29;20032;-63
2022/04/25 06:59:49;;;;;;;14.80;8.55;;;9.30;96.60;;;;;;4928478;29;20036;-63
2022/04/25 07:02:15;;;;;;;9.75;7.20;;;9.30;96.40;;;;;;4932411;29;20050;-64
2022/04/25 07:04:42;;;;;;;14.95;8.68;;;9.30;96.20;;;;;;4922238;29;20024;-64
2022/04/25 07:07:07;;;;;;;12.63;8.85;;;9.20;96.40;;;;;;4934941;29;20058;-64
2022/04/25 07:09:33;;;;;;;14.18;8.57;;;9.20;96.40;;;;;;4930184;29;20487;-64
2022/04/25 07:11:59;;;;;;;13.15;7.15;;;9.20;96.50;;;;;;4929389;29;20039;-65
2022/04/25 07:14:25;;;;;;;13.18;7.82;;;9.20;96.40;;;;;;4933773;29;20016;-66
2022/04/25 07:16:52;;;;;;;11.07;7.95;;;9.20;96.50;;;;;;4933347;29;20126;-66
2022/04/25 07:19:18;;;;;;;12.50;7.85;;;9.20;96.40;;;;;;4926511;29;20028;-67
2022/04/25 07:29:59;;;;;;;;;;;9.50;96.20;;;;;;4922058;29;20054;-67
2022/04/25 07:32:25;;;;;;;13.25;6.88;;;9.50;96.40;;;;;;4934388;29;19922;-68
2022/04/25 07:34:51;;;;;;;13.80;7.07;;;9.50;96.20;;;;;;4922705;29;20499;-66
2022/04/25 07:37:18;;;;;;;11.32;7.30;;;9.60;96.20;;;;;;4929330;29;20028;-65
2022/04/25 07:39:45;;;;;;;10.93;6.75;;;9.60;95.90;;;;;;4926901;29;20063;-65
2022/04/25 07:42:12;;;;;;;9.30;6.80;;;9.60;96.00;;;;;;4933649;29;20083;-65
2022/04/25 07:44:38;;;;;;;12.25;7.28;;;9.60;96.00;;;;;;4924443;29;20103;-65
2022/04/25 07:47:05;;;;;;;9.65;5.97;;;9.70;96.00;;;;;;4933195;29;20040;-65
2022/04/25 07:49:30;;;;;;;13.02;7.32;;;9.70;96.00;;;;;;4926348;29;20031;-64
2022/04/25 07:51:56;;;;;;;13.40;7.20;;;9.80;95.90;;;;;;4915787;29;20027;-65
2022/04/25 07:54:22;;;;;;;11.40;6.93;;;9.80;95.80;;;;;;4920133;29;20111;-65
2022/04/25 07:56:48;;;;;;;8.38;5.88;;;9.70;95.80;;;;;;4919423;29;20051;-65
2022/04/25 07:59:14;;;;;;;10.95;8.20;;;9.90;95.80;;;;;;4925830;29;20035;-65
2022/04/25 08:01:40;;;;;;;13.18;6.88;;;9.80;95.70;;;;;;4920872;29;20128;-65
2022/04/25 08:04:05;;;;;;;11.52;6.82;;;10.00;95.80;;;;;;4930512;29;20111;-65
2022/04/25 08:06:31;;;;;;;10.88;6.97;;;10.10;95.70;;;;;;4936767;29;20055;-64
2022/04/25 08:08:57;;;;;;;10.20;5.90;;;10.10;95.50;;;;;;4932389;29;20140;-65
2022/04/25 08:11:22;;;;;;;9.25;6.32;;;10.20;95.60;;;;;;4933606;29;20114;-65
2022/04/25 08:19:18;;;;;;;11.23;5.72;;;10.30;95.30;;;;;;4929041;29;20491;-64
2022/04/25 08:21:44;;;;;;;10.73;6.63;;;10.40;95.20;;;;;;4931683;29;20046;-65
2022/04/25 08:24:11;;;;;;;11.18;6.68;;;10.40;95.10;;;;;;4921652;29;20076;-65
2022/04/25 08:26:37;;;;;;;12.25;6.82;;;10.40;95.20;;;;;;4917003;29;20043;-64
2022/04/25 08:29:03;;;;;;;12.63;6.68;;;10.40;94.90;;;;;;4915542;29;20048;-65
2022/04/25 08:31:29;;;;;;;12.18;7.03;;;10.40;95.00;;;;;;4922236;29;20484;-65
2022/04/25 08:33:55;;;;;;;10.63;6.13;;;10.50;95.10;;;;;;4924303;29;20031;-65
2022/04/25 08:36:22;;;;;;;10.70;6.55;;;10.60;94.90;;;;;;4920317;29;20095;-66
2022/04/25 08:38:48;;;;;;;7.90;5.57;;;10.60;94.80;;;;;;4923987;29;20023;-65
2022/04/25 08:41:20;;;;;;;11.43;6.53;;;10.80;94.80;;;;;;4933373;29;20594;-65
2022/04/25 08:43:51;;;;;;;10.32;6.00;;;10.80;94.40;;;;;;4932462;29;20046;-65
2022/04/25 08:46:19;;;;;;;20.20;8.15;;;11.00;94.50;;;;;;4933231;29;20043;-65
2022/04/25 08:48:45;;;;;;;12.50;5.93;;;11.10;94.40;;;;;;4924230;29;20034;-66
2022/04/25 08:51:11;;;;;;;10.35;6.13;;;11.20;94.20;;;;;;4919865;29;20032;-66
2022/04/25 08:53:39;;;;;;;10.10;5.90;;;11.20;94.00;;;;;;4923105;29;20016;-65
2022/04/25 08:56:07;;;;;;;9.27;5.35;;;11.30;94.00;;;;;;4933432;29;20380;-65
2022/04/25 08:58:36;;;;;;;10.43;4.95;;;11.40;94.00;;;;;;4937150;29;20024;-65
2022/04/25 09:01:02;;;;;;;9.70;5.95;;;11.50;93.90;;;;;;4930359;29;20039;-65
2022/04/25 09:03:27;;;;;;;9.63;5.50;;;11.40;93.40;;;;;;4937100;29;20031;-65
2022/04/25 09:05:53;;;;;;;7.80;5.30;;;11.40;93.30;;;;;;4937669;29;20054;-65
2022/04/25 09:08:19;;;;;;;11.13;5.93;;;11.40;93.30;;;;;;4933285;29;20163;-65
2022/04/25 09:10:44;;;;;;;9.20;5.35;;;11.40;93.30;;;;;;4918948;29;20035;-65
2022/04/25 09:13:11;;;;;;;8.73;5.63;;;11.50;93.30;;;;;;4920288;29;20028;-65
2022/04/25 09:15:37;;;;;;;12.48;5.80;;;11.60;93.00;;;;;;4916645;29;20051;-65
2022/04/25 09:18:03;;;;;;;9.43;4.55;;;11.60;93.10;;;;;;4935118;29;20023;-65
2022/04/25 09:20:29;;;;;;;8.75;4.85;;;11.60;93.00;;;;;;4931086;29;20056;-65
2022/04/25 09:22:54;;;;;;;5.68;4.03;;;11.70;93.00;;;;;;4919875;29;20123;-65
2022/04/25 09:25:20;;;;;;;11.15;5.05;;;11.90;92.90;;;;;;4936146;29;20043;-66
2022/04/25 09:27:47;;;;;;;8.90;4.95;;;11.90;92.60;;;;;;4934235;29;20043;-65
2022/04/25 09:30:22;;;;;;;10.00;4.85;;;11.90;92.60;;;;;;4935429;29;20476;-66
2022/04/25 09:32:51;;;;;;;11.38;5.20;;;12.00;92.60;;;;;;4935541;29;20079;-65
2022/04/25 09:35:25;;;;;;;7.47;4.72;;;12.10;92.50;;;;;;4918088;29;20420;-66
2022/04/25 09:37:50;;;;;;;6.90;4.33;;;12.20;92.50;;;;;;4935692;29;20031;-64
2022/04/25 09:40:21;;;;;;;9.35;4.40;;;12.30;92.30;;;;;;4936226;29;20095;-65
2022/04/25 09:42:48;;;;;;;9.68;4.80;;;12.40;92.30;;;;;;4921894;29;20487;-65
2022/04/25 09:45:15;;;;;;;8.45;4.78;;;12.50;92.10;;;;;;4936226;29;20051;-65
2022/04/25 09:47:40;;;;;;;8.38;4.55;;;12.60;91.90;;;;;;4921990;29;20036;-64
2022/04/25 09:50:16;;;;;;;8.15;3.78;;;12.70;91.80;;;;;;4934778;29;20488;-65
2022/04/25 09:52:53;;;;;;;7.30;4.20;;;12.70;91.70;;;;;;4932595;29;20031;-64
2022/04/25 09:55:20;;;;;;;7.25;3.85;;;12.80;91.20;;;;;;4918887;29;20019;-65
2022/04/25 09:57:46;;;;;;;7.00;4.25;;;12.80;91.00;;;;;;4931507;29;20032;-64
2022/04/25 10:00:28;;;;;;;7.28;4.60;;;12.70;90.90;;;;;;4922867;29;20063;-65
2022/04/25 10:02:57;;;;;;;7.00;4.40;;;12.60;90.90;;;;;;4934018;29;20039;-68
2022/04/25 10:05:34;;;;;;;5.63;3.85;;;12.60;91.10;;;;;;4935519;29;20038;-65
2022/04/25 10:08:01;;;;;;;8.73;4.35;;;12.70;91.10;;;;;;4927251;29;20114;-65
2022/04/25 10:10:27;;;;;;;9.13;4.65;;;12.70;90.60;;;;;;4944996;29;20035;-56
2022/04/25 10:12:52;;;;;;;6.32;3.95;;;12.60;90.90;;;;;;4923727;29;20024;-66
2022/04/25 10:15:18;;;;;;;10.15;5.63;;;12.70;90.90;;;;;;4938510;29;20077;-66
2022/04/25 10:17:44;;;;;;;14.30;6.55;;;12.70;90.90;;;;;;4937346;29;20483;-65
2022/04/25 10:20:09;;;;;;;7.60;4.32;;;12.80;90.80;;;;;;4933414;29;20121;-68
2022/04/25 10:22:38;;;;;;;11.35;5.15;;;12.80;90.60;;;;;;4919822;29;20063;-65
2022/04/25 10:25:04;;;;;;;7.25;4.18;;;12.90;90.70;;;;;;4935287;29;20031;-66
2022/04/25 10:27:32;;;;;;;9.23;4.38;;;12.90;90.50;;;;;;4921523;29;20032;-66
2022/04/25 10:30:09;;;;;;;6.00;4.03;;;13.00;90.50;;;;;;4933421;29;20032;-66
2022/04/25 10:32:34;;;;;;;8.55;4.05;;;13.00;90.10;;;;;;4921011;29;20111;-66
2022/04/25 10:35:00;;;;;;;6.82;3.47;;;13.10;90.20;;;;;;4912491;29;20131;-65
2022/04/25 10:37:31;;;;;;;7.15;3.83;;;13.10;90.20;;;;;;4932267;29;20436;-66
2022/04/25 10:39:59;;;;;;;9.88;3.85;;;13.20;90.00;;;;;;4932220;29;20131;-66
2022/04/25 10:45:09;;;;;;;10.35;5.97;;;13.20;89.80;;;;;;4933870;29;20042;-66
2022/04/25 10:47:35;;;;;;;6.38;4.10;;;13.20;89.30;;;;;;4936112;29;20110;-67
2022/04/25 10:50:04;;;;;;;7.75;3.80;;;13.20;88.90;;;;;;4936077;29;20118;-66
2022/04/25 10:55:32;;;;;;;7.43;4.10;;;13.20;89.10;;;;;;4936042;29;20395;-66
2022/04/25 10:58:03;;;;;;;7.50;3.85;;;13.20;89.10;;;;;;4933870;29;20043;-66
2022/04/25 11:00:41;;;;;;;7.20;4.00;;;13.30;88.90;;;;;;4935887;29;20036;-66
2022/04/25 11:03:07;;;;;;;8.63;4.35;;;13.30;88.60;;;;;;4935723;29;20159;-65
2022/04/25 11:05:37;;;;;;;7.60;4.22;;;13.40;88.50;;;;;;4930720;29;20448;-65
2022/04/25 11:08:23;;;;;;;6.97;3.83;;;13.30;88.40;;;;;;4935707;29;20028;-66
2022/04/25 11:10:58;;;;;;;6.38;3.28;;;13.40;88.80;;;;;;4935091;29;20043;-66
2022/04/25 11:13:26;;;;;;;;;;;13.50;88.40;;;;;;4919270;29;20024;-66
2022/04/25 11:16:18;;;;;;;15.98;5.30;;;13.60;88.70;;;;;;4943604;29;19906;-66
2022/04/25 11:18:45;;;;;;;9.02;4.50;;;13.70;87.80;;;;;;4931541;29;20024;-65
2022/04/25 11:21:12;;;;;;;6.13;3.80;;;13.70;87.40;;;;;;4930606;29;20519;-66
2022/04/25 11:23:44;;;;;;;7.13;3.75;;;13.70;87.10;;;;;;4929780;29;20059;-66
2022/04/25 11:26:22;;;;;;;7.65;3.95;;;13.70;87.20;;;;;;4928107;29;20105;-64
2022/04/25 11:29:04;;;;;;;6.93;3.80;;;13.90;87.30;;;;;;4934717;29;20123;-65
2022/04/25 11:31:33;;;;;;;7.47;4.03;;;14.00;87.20;;;;;;4934002;29;20035;-65
2022/04/25 11:34:01;;;;;;;7.55;4.72;;;14.10;86.20;;;;;;4918659;29;20035;-66
2022/04/25 11:36:29;;;;;;;9.70;4.90;;;14.20;86.00;;;;;;4933512;29;20027;-66
2022/04/25 11:41:40;;;;;;;5.22;3.50;;;14.30;86.10;;;;;;4933061;29;20043;-65
2022/04/25 11:44:06;;;;;;;15.35;6.25;;;14.50;85.60;;;;;;4934852;29;20046;-65
2022/04/25 11:46:33;;;;;;;6.40;3.72;;;14.50;84.80;;;;;;4919106;29;20385;-65
2022/04/25 11:48:59;;;;;;;8.07;4.30;;;14.60;84.90;;;;;;4933730;29;20031;-65
2022/04/25 11:51:29;;;;;;;8.10;4.15;;;14.60;84.60;;;;;;4934249;29;20042;-66
2022/04/25 11:53:58;;;;;;;8.48;3.95;;;14.70;84.80;;;;;;4932947;29;20026;-65
2022/04/25 11:56:25;;;;;;;11.07;3.90;;;14.80;84.00;;;;;;4934460;29;20031;-66
2022/04/25 11:58:51;;;;;;;8.25;3.88;;;15.00;83.20;;;;;;4932513;29;20024;-66
2022/04/25 12:01:35;;;;;;;7.68;3.88;;;15.00;83.00;;;;;;4934289;29;20039;-66
2022/04/25 12:04:17;;;;;;;8.55;3.72;;;15.10;82.40;;;;;;4918283;29;20167;-66
2022/04/25 12:07:05;;;;;;;5.85;3.30;;;15.10;82.60;;;;;;4929944;29;20481;-66
2022/04/25 12:15:34;;;;;;;5.47;3.28;;;15.10;81.90;;;;;;4934212;29;20099;-66
2022/04/25 12:15:40;;;;;;;5.35;3.58;;;15.20;81.70;;;;;;4925379;29;20031;-65
2022/04/25 12:18:27;;;;;;;8.30;4.50;;;15.20;80.90;;;;;;4916585;29;20048;-66
2022/04/25 12:21:12;;;;;;;4.35;3.30;;;15.10;80.50;;;;;;4918703;29;20086;-65
2022/04/25 12:23:46;;;;;;;6.38;3.72;;;15.10;80.70;;;;;;4917995;29;20055;-66
2022/04/25 12:26:34;;;;;;;4.45;3.20;;;15.00;80.80;;;;;;4916676;29;20519;-67
2022/04/25 12:29:01;;;;;;;6.10;3.55;;;15.00;80.80;;;;;;4918245;29;20048;-60
2022/04/25 12:31:28;;;;;;;7.93;4.00;;;14.90;81.30;;;;;;4929727;29;20035;-66
2022/04/25 12:33:54;;;;;;;6.65;4.30;;;15.00;81.30;;;;;;4926951;29;20024;-66
2022/04/25 12:36:22;;;;;;;5.75;3.60;;;15.10;80.90;;;;;;4921018;29;20054;-67
2022/04/25 12:39:02;;;;;;;5.32;3.20;;;15.10;80.70;;;;;;4924145;29;20035;-65
2022/04/25 12:41:31;;;;;;;4.90;3.25;;;15.10;80.10;;;;;;4921226;29;20068;-64
2022/04/25 12:43:58;;;;;;;6.50;3.72;;;15.10;80.20;;;;;;4909543;29;20050;-66
2022/04/25 12:46:39;;;;;;;5.90;4.07;;;15.20;79.70;;;;;;4925689;29;20127;-66
2022/04/25 12:49:16;;;;;;;5.90;3.85;;;15.20;79.60;;;;;;4926840;29;20039;-66
2022/04/25 12:51:47;;;;;;;6.93;4.22;;;15.30;79.60;;;;;;4927594;29;20051;-65
2022/04/25 12:54:24;;;;;;;7.18;4.00;;;15.30;79.70;;;;;;4930987;29;20020;-66
2022/04/25 12:57:08;;;;;;;7.10;4.13;;;15.40;79.00;;;;;;4932971;29;20063;-65
2022/04/25 12:59:34;;;;;;;7.25;4.07;;;15.40;78.90;;;;;;4932629;29;20531;-66
2022/04/25 13:02:06;;;;;;;5.82;4.00;;;15.50;78.50;;;;;;4930816;29;20051;-65
2022/04/25 13:04:31;;;;;;;6.70;3.75;;;15.60;78.10;;;;;;4928611;29;20023;-65
2022/04/25 13:06:57;;;;;;;4.70;3.70;;;15.60;77.90;;;;;;4933342;29;20032;-66
2022/04/25 13:09:23;;;;;;;7.45;4.25;;;15.70;78.20;;;;;;4927143;29;20036;-65
2022/04/25 13:11:48;;;;;;;5.60;3.45;;;15.80;77.90;;;;;;4928745;29;20042;-65
2022/04/25 13:14:14;;;;;;;6.57;4.03;;;15.90;77.00;;;;;;4926268;29;20031;-65
2022/04/25 13:16:40;;;;;;;6.88;4.15;;;16.00;76.50;;;;;;4942951;29;20039;-66
2022/04/25 13:19:06;;;;;;;6.25;4.30;;;16.10;77.00;;;;;;4932260;29;20358;-66
2022/04/25 13:21:34;;;;;;;7.07;4.03;;;16.10;76.30;;;;;;4921120;29;20048;-66
2022/04/25 13:24:00;;;;;;;5.65;4.60;;;16.20;76.30;;;;;;4931814;29;20055;-66
2022/04/25 13:26:26;;;;;;;8.43;3.92;;;16.20;75.00;;;;;;4931026;29;20488;-66
2022/04/25 13:28:51;;;;;;;4.53;3.75;;;16.30;75.10;;;;;;4915470;29;20123;-67